sensor_id;sensor_type;location;lat;lon;timestamp;temperature;humidity
73572;DHT22;61854;48.510;-2.770;2022-11-11T00:01:31;12.20;96.10
73572;DHT22;61854;48.510;-2.770;2022-11-11T00:03:57;12.20;96.10
73572;DHT22;61854;48.510;-2.770;2022-11-11T00:06:23;12.20;96.20
73572;DHT22;61854;48.510;-2.770;2022-11-11T00:08:48;12.10;96.20
73572;DHT22;61854;48.510;-2.770;2022-11-11T00:11:15;12.10;96.20
73572;DHT22;61854;48.510;-2.770;2022-11-11T00:13:42;12.10;96.30
73572;DHT22;61854;48.510;-2.770;2022-11-11T00:16:14;12.10;96.40
73572;DHT22;61854;48.510;-2.770;2022-11-11T00:18:41;12.00;96.30
73572;DHT22;61854;48.510;-2.770;2022-11-11T00:21:26;12.00;96.50
73572;DHT22;61854;48.510;-2.770;2022-11-11T00:24:24;11.90;96.50
73572;DHT22;61854;48.510;-2.770;2022-11-11T00:27:11;11.90;96.60
73572;DHT22;61854;48.510;-2.770;2022-11-11T00:29:37;11.90;96.80
73572;DHT22;61854;48.510;-2.770;2022-11-11T00:32:04;11.90;97.00
73572;DHT22;61854;48.510;-2.770;2022-11-11T00:34:49;11.90;97.10
73572;DHT22;61854;48.510;-2.770;2022-11-11T00:37:34;11.90;97.30
73572;DHT22;61854;48.510;-2.770;2022-11-11T00:40:00;11.90;97.30
73572;DHT22;61854;48.510;-2.770;2022-11-11T00:42:26;11.90;97.30
73572;DHT22;61854;48.510;-2.770;2022-11-11T00:44:52;11.90;97.40
73572;DHT22;61854;48.510;-2.770;2022-11-11T00:47:17;11.90;97.40
73572;DHT22;61854;48.510;-2.770;2022-11-11T00:50:13;11.90;97.50
73572;DHT22;61854;48.510;-2.770;2022-11-11T00:52:58;11.90;97.70
73572;DHT22;61854;48.510;-2.770;2022-11-11T00:55:24;12.00;97.80
73572;DHT22;61854;48.510;-2.770;2022-11-11T00:57:49;12.00;97.80
73572;DHT22;61854;48.510;-2.770;2022-11-11T01:00:15;12.00;97.90
73572;DHT22;61854;48.510;-2.770;2022-11-11T01:02:40;12.00;98.00
73572;DHT22;61854;48.510;-2.770;2022-11-11T01:05:06;12.10;98.10
73572;DHT22;61854;48.510;-2.770;2022-11-11T01:07:32;12.10;98.20
73572;DHT22;61854;48.510;-2.770;2022-11-11T01:09:58;12.20;98.30
73572;DHT22;61854;48.510;-2.770;2022-11-11T01:12:23;12.20;98.20
73572;DHT22;61854;48.510;-2.770;2022-11-11T01:14:49;12.20;98.40
73572;DHT22;61854;48.510;-2.770;2022-11-11T01:17:14;12.30;98.40
73572;DHT22;61854;48.510;-2.770;2022-11-11T01:19:40;12.30;98.40
73572;DHT22;61854;48.510;-2.770;2022-11-11T01:22:05;12.30;98.40
73572;DHT22;61854;48.510;-2.770;2022-11-11T01:24:31;12.40;98.40
73572;DHT22;61854;48.510;-2.770;2022-11-11T01:26:57;12.40;98.40
73572;DHT22;61854;48.510;-2.770;2022-11-11T01:29:22;12.40;98.50
73572;DHT22;61854;48.510;-2.770;2022-11-11T01:31:48;12.40;98.50
73572;DHT22;61854;48.510;-2.770;2022-11-11T01:34:13;12.40;98.40
73572;DHT22;61854;48.510;-2.770;2022-11-11T01:36:39;12.40;98.50
73572;DHT22;61854;48.510;-2.770;2022-11-11T01:39:04;12.50;98.50
73572;DHT22;61854;48.510;-2.770;2022-11-11T01:41:32;12.40;98.40
73572;DHT22;61854;48.510;-2.770;2022-11-11T01:46:49;12.40;98.40
73572;DHT22;61854;48.510;-2.770;2022-11-11T01:54:46;12.40;98.40
73572;DHT22;61854;48.510;-2.770;2022-11-11T01:57:27;12.40;98.40
73572;DHT22;61854;48.510;-2.770;2022-11-11T02:00:02;12.40;98.40
73572;DHT22;61854;48.510;-2.770;2022-11-11T02:05:03;12.40;98.50
73572;DHT22;61854;48.510;-2.770;2022-11-11T02:07:49;12.40;98.50
73572;DHT22;61854;48.510;-2.770;2022-11-11T02:10:18;12.50;98.60
73572;DHT22;61854;48.510;-2.770;2022-11-11T02:12:45;12.50;98.50
73572;DHT22;61854;48.510;-2.770;2022-11-11T02:15:29;12.50;98.40
73572;DHT22;61854;48.510;-2.770;2022-11-11T02:17:55;12.50;98.30
73572;DHT22;61854;48.510;-2.770;2022-11-11T02:20:24;12.40;98.30
73572;DHT22;61854;48.510;-2.770;2022-11-11T02:22:57;12.50;98.40
73572;DHT22;61854;48.510;-2.770;2022-11-11T02:25:27;12.50;98.30
73572;DHT22;61854;48.510;-2.770;2022-11-11T02:27:57;12.50;98.20
73572;DHT22;61854;48.510;-2.770;2022-11-11T02:30:24;12.50;98.20
73572;DHT22;61854;48.510;-2.770;2022-11-11T02:32:51;12.50;98.10
73572;DHT22;61854;48.510;-2.770;2022-11-11T02:35:20;12.50;98.20
73572;DHT22;61854;48.510;-2.770;2022-11-11T02:37:49;12.50;98.20
73572;DHT22;61854;48.510;-2.770;2022-11-11T02:42:43;12.40;98.20
73572;DHT22;61854;48.510;-2.770;2022-11-11T02:45:09;12.40;98.10
73572;DHT22;61854;48.510;-2.770;2022-11-11T02:47:35;12.40;98.10
73572;DHT22;61854;48.510;-2.770;2022-11-11T02:50:01;12.40;98.20
73572;DHT22;61854;48.510;-2.770;2022-11-11T02:52:27;12.40;98.20
73572;DHT22;61854;48.510;-2.770;2022-11-11T02:54:52;12.30;98.00
73572;DHT22;61854;48.510;-2.770;2022-11-11T02:57:18;12.30;98.10
73572;DHT22;61854;48.510;-2.770;2022-11-11T02:59:44;12.30;98.30
73572;DHT22;61854;48.510;-2.770;2022-11-11T03:02:09;12.30;98.10
73572;DHT22;61854;48.510;-2.770;2022-11-11T03:04:35;12.30;98.20
73572;DHT22;61854;48.510;-2.770;2022-11-11T03:07:03;12.30;98.20
73572;DHT22;61854;48.510;-2.770;2022-11-11T03:09:29;12.20;98.20
73572;DHT22;61854;48.510;-2.770;2022-11-11T03:11:54;12.30;98.30
73572;DHT22;61854;48.510;-2.770;2022-11-11T03:14:20;12.20;98.10
73572;DHT22;61854;48.510;-2.770;2022-11-11T03:16:45;12.20;98.10
73572;DHT22;61854;48.510;-2.770;2022-11-11T03:19:30;12.20;98.20
73572;DHT22;61854;48.510;-2.770;2022-11-11T03:21:56;12.30;98.40
73572;DHT22;61854;48.510;-2.770;2022-11-11T03:24:23;12.30;98.40
73572;DHT22;61854;48.510;-2.770;2022-11-11T03:26:49;12.30;98.30
73572;DHT22;61854;48.510;-2.770;2022-11-11T03:29:14;12.30;98.30
73572;DHT22;61854;48.510;-2.770;2022-11-11T03:31:40;12.40;98.40
73572;DHT22;61854;48.510;-2.770;2022-11-11T03:34:05;12.40;98.40
73572;DHT22;61854;48.510;-2.770;2022-11-11T03:36:44;12.40;98.20
73572;DHT22;61854;48.510;-2.770;2022-11-11T03:39:28;12.40;98.20
73572;DHT22;61854;48.510;-2.770;2022-11-11T03:41:55;12.40;98.10
73572;DHT22;61854;48.510;-2.770;2022-11-11T03:44:21;12.40;98.10
73572;DHT22;61854;48.510;-2.770;2022-11-11T03:46:47;12.50;98.10
73572;DHT22;61854;48.510;-2.770;2022-11-11T03:49:12;12.50;97.90
73572;DHT22;61854;48.510;-2.770;2022-11-11T03:51:38;12.60;97.90
73572;DHT22;61854;48.510;-2.770;2022-11-11T03:54:03;12.60;97.90
73572;DHT22;61854;48.510;-2.770;2022-11-11T03:56:29;12.60;97.90
73572;DHT22;61854;48.510;-2.770;2022-11-11T03:58:58;12.60;97.90
73572;DHT22;61854;48.510;-2.770;2022-11-11T04:01:23;12.60;97.90
73572;DHT22;61854;48.510;-2.770;2022-11-11T04:04:08;12.70;98.00
73572;DHT22;61854;48.510;-2.770;2022-11-11T04:06:52;12.80;98.00
73572;DHT22;61854;48.510;-2.770;2022-11-11T04:09:36;12.80;97.80
73572;DHT22;61854;48.510;-2.770;2022-11-11T04:12:21;12.80;97.90
73572;DHT22;61854;48.510;-2.770;2022-11-11T04:14:47;12.80;97.50
73572;DHT22;61854;48.510;-2.770;2022-11-11T04:17:31;12.80;97.40
73572;DHT22;61854;48.510;-2.770;2022-11-11T04:19:56;12.90;97.30
73572;DHT22;61854;48.510;-2.770;2022-11-11T04:22:41;12.90;97.30
73572;DHT22;61854;48.510;-2.770;2022-11-11T04:25:07;12.90;97.20
73572;DHT22;61854;48.510;-2.770;2022-11-11T04:27:51;12.90;97.30
73572;DHT22;61854;48.510;-2.770;2022-11-11T04:30:36;12.90;97.10
73572;DHT22;61854;48.510;-2.770;2022-11-11T04:33:02;12.90;97.00
73572;DHT22;61854;48.510;-2.770;2022-11-11T04:35:28;13.00;96.90
73572;DHT22;61854;48.510;-2.770;2022-11-11T04:37:53;13.00;96.50
73572;DHT22;61854;48.510;-2.770;2022-11-11T04:40:39;13.00;96.40
73572;DHT22;61854;48.510;-2.770;2022-11-11T04:43:23;13.00;96.40
73572;DHT22;61854;48.510;-2.770;2022-11-11T04:45:48;13.00;96.40
73572;DHT22;61854;48.510;-2.770;2022-11-11T04:48:14;13.10;96.40
73572;DHT22;61854;48.510;-2.770;2022-11-11T04:50:43;13.10;96.40
73572;DHT22;61854;48.510;-2.770;2022-11-11T04:53:11;13.10;96.20
73572;DHT22;61854;48.510;-2.770;2022-11-11T04:55:41;13.10;96.10
73572;DHT22;61854;48.510;-2.770;2022-11-11T04:58:33;13.10;96.20
73572;DHT22;61854;48.510;-2.770;2022-11-11T05:00:59;13.10;96.10
73572;DHT22;61854;48.510;-2.770;2022-11-11T05:03:25;13.10;96.00
73572;DHT22;61854;48.510;-2.770;2022-11-11T05:05:56;13.10;95.90
73572;DHT22;61854;48.510;-2.770;2022-11-11T05:08:46;13.10;96.00
73572;DHT22;61854;48.510;-2.770;2022-11-11T05:11:28;13.10;96.00
73572;DHT22;61854;48.510;-2.770;2022-11-11T05:13:57;13.10;96.10
73572;DHT22;61854;48.510;-2.770;2022-11-11T05:16:50;13.10;95.90
73572;DHT22;61854;48.510;-2.770;2022-11-11T05:19:34;13.10;95.90
73572;DHT22;61854;48.510;-2.770;2022-11-11T05:24:53;13.10;95.60
73572;DHT22;61854;48.510;-2.770;2022-11-11T05:27:37;13.10;95.60
73572;DHT22;61854;48.510;-2.770;2022-11-11T05:30:04;13.10;95.60
73572;DHT22;61854;48.510;-2.770;2022-11-11T05:32:30;13.10;95.60
73572;DHT22;61854;48.510;-2.770;2022-11-11T05:34:56;13.10;95.50
73572;DHT22;61854;48.510;-2.770;2022-11-11T05:37:22;13.10;95.30
73572;DHT22;61854;48.510;-2.770;2022-11-11T05:39:47;13.10;95.10
73572;DHT22;61854;48.510;-2.770;2022-11-11T05:42:13;13.20;95.00
73572;DHT22;61854;48.510;-2.770;2022-11-11T05:44:39;13.20;95.00
73572;DHT22;61854;48.510;-2.770;2022-11-11T05:47:05;13.20;94.90
73572;DHT22;61854;48.510;-2.770;2022-11-11T05:49:31;13.10;94.90
73572;DHT22;61854;48.510;-2.770;2022-11-11T05:51:57;13.10;94.70
73572;DHT22;61854;48.510;-2.770;2022-11-11T05:54:23;13.20;94.50
73572;DHT22;61854;48.510;-2.770;2022-11-11T05:56:48;13.20;94.30
73572;DHT22;61854;48.510;-2.770;2022-11-11T05:59:14;13.20;94.20
73572;DHT22;61854;48.510;-2.770;2022-11-11T06:01:40;13.20;94.10
73572;DHT22;61854;48.510;-2.770;2022-11-11T06:04:06;13.20;94.20
73572;DHT22;61854;48.510;-2.770;2022-11-11T06:06:32;13.10;94.20
73572;DHT22;61854;48.510;-2.770;2022-11-11T06:08:58;13.20;94.40
73572;DHT22;61854;48.510;-2.770;2022-11-11T06:11:24;13.10;94.50
73572;DHT22;61854;48.510;-2.770;2022-11-11T06:13:50;13.10;94.60
73572;DHT22;61854;48.510;-2.770;2022-11-11T06:16:15;13.10;94.80
73572;DHT22;61854;48.510;-2.770;2022-11-11T06:18:41;13.10;94.80
73572;DHT22;61854;48.510;-2.770;2022-11-11T06:21:07;13.10;94.80
73572;DHT22;61854;48.510;-2.770;2022-11-11T06:23:33;13.10;94.90
73572;DHT22;61854;48.510;-2.770;2022-11-11T06:25:58;13.10;94.90
73572;DHT22;61854;48.510;-2.770;2022-11-11T06:28:54;13.10;95.00
73572;DHT22;61854;48.510;-2.770;2022-11-11T06:31:24;13.10;95.00
73572;DHT22;61854;48.510;-2.770;2022-11-11T06:33:51;13.00;95.10
73572;DHT22;61854;48.510;-2.770;2022-11-11T06:36:19;13.00;95.20
73572;DHT22;61854;48.510;-2.770;2022-11-11T06:38:45;13.00;95.30
73572;DHT22;61854;48.510;-2.770;2022-11-11T06:41:12;13.00;95.40
73572;DHT22;61854;48.510;-2.770;2022-11-11T06:43:38;13.00;95.50
73572;DHT22;61854;48.510;-2.770;2022-11-11T06:46:04;13.00;95.50
73572;DHT22;61854;48.510;-2.770;2022-11-11T06:48:30;13.00;95.50
73572;DHT22;61854;48.510;-2.770;2022-11-11T06:51:04;13.00;95.60
73572;DHT22;61854;48.510;-2.770;2022-11-11T06:53:30;12.90;95.50
73572;DHT22;61854;48.510;-2.770;2022-11-11T06:55:56;12.90;95.60
73572;DHT22;61854;48.510;-2.770;2022-11-11T06:58:23;12.90;95.70
73572;DHT22;61854;48.510;-2.770;2022-11-11T07:00:49;12.90;95.70
73572;DHT22;61854;48.510;-2.770;2022-11-11T07:03:17;12.90;95.80
73572;DHT22;61854;48.510;-2.770;2022-11-11T07:05:44;12.90;95.80
73572;DHT22;61854;48.510;-2.770;2022-11-11T07:08:12;12.80;95.90
73572;DHT22;61854;48.510;-2.770;2022-11-11T07:10:40;12.80;95.90
73572;DHT22;61854;48.510;-2.770;2022-11-11T07:13:08;12.80;96.00
73572;DHT22;61854;48.510;-2.770;2022-11-11T07:15:37;12.80;95.90
73572;DHT22;61854;48.510;-2.770;2022-11-11T07:18:03;12.80;95.80
73572;DHT22;61854;48.510;-2.770;2022-11-11T07:20:29;12.80;95.70
73572;DHT22;61854;48.510;-2.770;2022-11-11T07:22:55;12.80;95.60
73572;DHT22;61854;48.510;-2.770;2022-11-11T07:25:21;12.80;95.50
73572;DHT22;61854;48.510;-2.770;2022-11-11T07:27:46;12.80;95.60
73572;DHT22;61854;48.510;-2.770;2022-11-11T07:30:12;12.70;95.50
73572;DHT22;61854;48.510;-2.770;2022-11-11T07:32:49;12.60;95.40
73572;DHT22;61854;48.510;-2.770;2022-11-11T07:35:15;12.50;96.00
73572;DHT22;61854;48.510;-2.770;2022-11-11T07:37:42;12.50;95.70
73572;DHT22;61854;48.510;-2.770;2022-11-11T07:40:10;12.30;96.00
73572;DHT22;61854;48.510;-2.770;2022-11-11T07:42:40;12.30;96.30
73572;DHT22;61854;48.510;-2.770;2022-11-11T07:45:07;12.20;96.40
73572;DHT22;61854;48.510;-2.770;2022-11-11T07:47:33;12.10;96.60
73572;DHT22;61854;48.510;-2.770;2022-11-11T07:50:00;12.00;96.70
73572;DHT22;61854;48.510;-2.770;2022-11-11T07:52:25;12.00;96.80
73572;DHT22;61854;48.510;-2.770;2022-11-11T07:54:51;12.00;96.80
73572;DHT22;61854;48.510;-2.770;2022-11-11T07:57:17;11.90;96.90
73572;DHT22;61854;48.510;-2.770;2022-11-11T07:59:42;11.90;96.90
73572;DHT22;61854;48.510;-2.770;2022-11-11T08:02:11;11.90;97.00
73572;DHT22;61854;48.510;-2.770;2022-11-11T08:04:37;12.00;97.10
73572;DHT22;61854;48.510;-2.770;2022-11-11T08:07:03;12.10;97.10
73572;DHT22;61854;48.510;-2.770;2022-11-11T08:09:29;12.30;96.90
73572;DHT22;61854;48.510;-2.770;2022-11-11T08:11:55;12.40;96.50
73572;DHT22;61854;48.510;-2.770;2022-11-11T08:14:39;12.50;95.80
73572;DHT22;61854;48.510;-2.770;2022-11-11T08:17:04;12.50;95.50
73572;DHT22;61854;48.510;-2.770;2022-11-11T08:19:30;12.40;95.40
73572;DHT22;61854;48.510;-2.770;2022-11-11T08:21:56;12.40;95.30
73572;DHT22;61854;48.510;-2.770;2022-11-11T08:24:21;12.40;95.30
73572;DHT22;61854;48.510;-2.770;2022-11-11T08:26:47;12.30;95.50
73572;DHT22;61854;48.510;-2.770;2022-11-11T08:29:17;12.30;95.40
73572;DHT22;61854;48.510;-2.770;2022-11-11T08:31:42;12.30;95.50
73572;DHT22;61854;48.510;-2.770;2022-11-11T08:34:11;12.20;95.40
73572;DHT22;61854;48.510;-2.770;2022-11-11T08:36:37;12.20;95.30
73572;DHT22;61854;48.510;-2.770;2022-11-11T08:39:02;12.30;95.30
73572;DHT22;61854;48.510;-2.770;2022-11-11T08:41:28;12.20;95.10
73572;DHT22;61854;48.510;-2.770;2022-11-11T08:43:54;12.30;95.00
73572;DHT22;61854;48.510;-2.770;2022-11-11T08:46:20;12.30;94.70
73572;DHT22;61854;48.510;-2.770;2022-11-11T08:48:47;12.30;94.60
73572;DHT22;61854;48.510;-2.770;2022-11-11T08:51:13;12.30;94.40
73572;DHT22;61854;48.510;-2.770;2022-11-11T08:53:38;12.30;94.10
73572;DHT22;61854;48.510;-2.770;2022-11-11T08:56:04;12.30;93.80
73572;DHT22;61854;48.510;-2.770;2022-11-11T08:58:30;12.40;93.70
73572;DHT22;61854;48.510;-2.770;2022-11-11T09:00:56;12.40;93.50
73572;DHT22;61854;48.510;-2.770;2022-11-11T09:03:22;12.40;93.00
73572;DHT22;61854;48.510;-2.770;2022-11-11T09:05:49;12.40;92.90
73572;DHT22;61854;48.510;-2.770;2022-11-11T09:08:14;12.40;92.60
73572;DHT22;61854;48.510;-2.770;2022-11-11T09:10:40;12.50;92.40
73572;DHT22;61854;48.510;-2.770;2022-11-11T09:13:05;12.50;91.90
73572;DHT22;61854;48.510;-2.770;2022-11-11T09:15:31;12.50;91.40
73572;DHT22;61854;48.510;-2.770;2022-11-11T09:17:57;12.60;91.20
73572;DHT22;61854;48.510;-2.770;2022-11-11T09:20:23;12.60;90.90
73572;DHT22;61854;48.510;-2.770;2022-11-11T09:22:49;12.70;90.80
73572;DHT22;61854;48.510;-2.770;2022-11-11T09:25:16;12.70;90.50
73572;DHT22;61854;48.510;-2.770;2022-11-11T09:27:42;12.70;90.20
73572;DHT22;61854;48.510;-2.770;2022-11-11T09:30:09;12.70;90.20
73572;DHT22;61854;48.510;-2.770;2022-11-11T09:32:35;12.80;89.80
73572;DHT22;61854;48.510;-2.770;2022-11-11T09:35:05;12.80;89.60
73572;DHT22;61854;48.510;-2.770;2022-11-11T09:37:30;12.80;88.50
73572;DHT22;61854;48.510;-2.770;2022-11-11T09:39:56;12.90;87.20
73572;DHT22;61854;48.510;-2.770;2022-11-11T09:47:42;12.90;86.00
73572;DHT22;61854;48.510;-2.770;2022-11-11T09:50:20;12.90;86.10
73572;DHT22;61854;48.510;-2.770;2022-11-11T09:56:08;13.00;85.10
73572;DHT22;61854;48.510;-2.770;2022-11-11T09:58:49;13.00;83.40
73572;DHT22;61854;48.510;-2.770;2022-11-11T10:01:19;13.00;82.60
73572;DHT22;61854;48.510;-2.770;2022-11-11T10:03:57;13.00;82.50
73572;DHT22;61854;48.510;-2.770;2022-11-11T10:06:29;13.00;82.20
73572;DHT22;61854;48.510;-2.770;2022-11-11T10:14:03;13.10;81.90
73572;DHT22;61854;48.510;-2.770;2022-11-11T10:22:21;13.10;82.80
73572;DHT22;61854;48.510;-2.770;2022-11-11T10:27:46;13.20;81.70
73572;DHT22;61854;48.510;-2.770;2022-11-11T10:33:02;13.10;82.10
73572;DHT22;61854;48.510;-2.770;2022-11-11T10:35:31;13.10;82.90
73572;DHT22;61854;48.510;-2.770;2022-11-11T10:38:02;13.10;83.10
73572;DHT22;61854;48.510;-2.770;2022-11-11T10:40:41;13.10;83.20
73572;DHT22;61854;48.510;-2.770;2022-11-11T10:43:25;13.10;83.10
73572;DHT22;61854;48.510;-2.770;2022-11-11T10:46:02;13.00;82.70
73572;DHT22;61854;48.510;-2.770;2022-11-11T10:51:06;12.90;83.00
73572;DHT22;61854;48.510;-2.770;2022-11-11T10:58:55;12.90;84.40
73572;DHT22;61854;48.510;-2.770;2022-11-11T11:01:31;12.80;84.30
73572;DHT22;61854;48.510;-2.770;2022-11-11T11:04:03;12.80;83.90
73572;DHT22;61854;48.510;-2.770;2022-11-11T11:06:33;12.80;83.30
73572;DHT22;61854;48.510;-2.770;2022-11-11T11:10:22;12.80;83.30
73572;DHT22;61854;48.510;-2.770;2022-11-11T11:12:21;12.80;83.60
73572;DHT22;61854;48.510;-2.770;2022-11-11T11:14:53;12.80;83.80
73572;DHT22;61854;48.510;-2.770;2022-11-11T11:17:50;12.80;82.60
73572;DHT22;61854;48.510;-2.770;2022-11-11T11:20:19;12.70;83.20
73572;DHT22;61854;48.510;-2.770;2022-11-11T11:22:46;12.70;83.30
73572;DHT22;61854;48.510;-2.770;2022-11-11T11:25:13;12.70;84.30
73572;DHT22;61854;48.510;-2.770;2022-11-11T11:27:38;12.70;84.30
73572;DHT22;61854;48.510;-2.770;2022-11-11T11:30:16;12.70;84.30
73572;DHT22;61854;48.510;-2.770;2022-11-11T11:32:55;12.70;84.20
73572;DHT22;61854;48.510;-2.770;2022-11-11T11:35:44;12.70;83.70
73572;DHT22;61854;48.510;-2.770;2022-11-11T11:38:11;12.60;84.40
73572;DHT22;61854;48.510;-2.770;2022-11-11T11:40:52;12.60;84.50
73572;DHT22;61854;48.510;-2.770;2022-11-11T11:43:35;12.60;84.30
73572;DHT22;61854;48.510;-2.770;2022-11-11T11:46:15;12.60;84.30
73572;DHT22;61854;48.510;-2.770;2022-11-11T11:58:02;12.60;83.40
73572;DHT22;61854;48.510;-2.770;2022-11-11T12:01:23;12.60;83.40
73572;DHT22;61854;48.510;-2.770;2022-11-11T12:03:47;12.60;83.30
73572;DHT22;61854;48.510;-2.770;2022-11-11T12:14:51;12.70;82.50
73572;DHT22;61854;48.510;-2.770;2022-11-11T12:20:29;12.70;83.00
73572;DHT22;61854;48.510;-2.770;2022-11-11T12:33:49;12.80;81.50
73572;DHT22;61854;48.510;-2.770;2022-11-11T13:03:50;13.30;80.30
73572;DHT22;61854;48.510;-2.770;2022-11-11T13:06:33;13.40;80.60
73572;DHT22;61854;48.510;-2.770;2022-11-11T13:09:26;13.50;80.30
73572;DHT22;61854;48.510;-2.770;2022-11-11T13:14:50;13.60;79.20
73572;DHT22;61854;48.510;-2.770;2022-11-11T13:17:16;13.50;79.30
73572;DHT22;61854;48.510;-2.770;2022-11-11T13:24:39;13.50;80.70
73572;DHT22;61854;48.510;-2.770;2022-11-11T13:27:45;13.70;80.70
73572;DHT22;61854;48.510;-2.770;2022-11-11T13:33:08;16.30;72.80
73572;DHT22;61854;48.510;-2.770;2022-11-11T13:35:46;17.30;69.40
73572;DHT22;61854;48.510;-2.770;2022-11-11T13:40:55;18.30;64.80
73572;DHT22;61854;48.510;-2.770;2022-11-11T13:43:27;18.40;64.60
73572;DHT22;61854;48.510;-2.770;2022-11-11T13:45:55;18.90;63.40
73572;DHT22;61854;48.510;-2.770;2022-11-11T13:48:35;18.90;63.10
73572;DHT22;61854;48.510;-2.770;2022-11-11T13:51:40;19.10;62.90
73572;DHT22;61854;48.510;-2.770;2022-11-11T13:54:26;19.50;61.60
73572;DHT22;61854;48.510;-2.770;2022-11-11T13:57:05;19.70;60.80
73572;DHT22;61854;48.510;-2.770;2022-11-11T13:59:35;20.00;59.30
73572;DHT22;61854;48.510;-2.770;2022-11-11T14:12:48;20.00;59.20
73572;DHT22;61854;48.510;-2.770;2022-11-11T14:20:49;20.40;57.80
73572;DHT22;61854;48.510;-2.770;2022-11-11T14:25:47;20.40;57.90
73572;DHT22;61854;48.510;-2.770;2022-11-11T14:28:26;20.80;56.60
73572;DHT22;61854;48.510;-2.770;2022-11-11T14:30:53;21.10;55.60
73572;DHT22;61854;48.510;-2.770;2022-11-11T14:41:49;21.20;55.50
73572;DHT22;61854;48.510;-2.770;2022-11-11T14:49:45;21.40;54.10
73572;DHT22;61854;48.510;-2.770;2022-11-11T14:52:31;21.30;54.50
73572;DHT22;61854;48.510;-2.770;2022-11-11T15:00:04;21.10;54.60
73572;DHT22;61854;48.510;-2.770;2022-11-11T15:02:35;21.40;54.40
73572;DHT22;61854;48.510;-2.770;2022-11-11T15:05:05;21.60;53.70
73572;DHT22;61854;48.510;-2.770;2022-11-11T15:07:44;21.20;54.50
73572;DHT22;61854;48.510;-2.770;2022-11-11T15:15:59;21.20;54.80
73572;DHT22;61854;48.510;-2.770;2022-11-11T15:21:39;21.10;54.70
73572;DHT22;61854;48.510;-2.770;2022-11-11T15:24:33;21.10;56.00
73572;DHT22;61854;48.510;-2.770;2022-11-11T15:37:27;20.50;55.00
73572;DHT22;61854;48.510;-2.770;2022-11-11T15:39:55;20.50;54.60
73572;DHT22;61854;48.510;-2.770;2022-11-11T15:42:31;20.10;55.50
73572;DHT22;61854;48.510;-2.770;2022-11-11T15:45:01;19.80;55.70
73572;DHT22;61854;48.510;-2.770;2022-11-11T15:47:29;18.80;57.60
73572;DHT22;61854;48.510;-2.770;2022-11-11T15:49:59;17.50;60.80
73572;DHT22;61854;48.510;-2.770;2022-11-11T15:52:31;16.40;64.90
73572;DHT22;61854;48.510;-2.770;2022-11-11T15:54:58;15.50;67.80
73572;DHT22;61854;48.510;-2.770;2022-11-11T15:59:55;14.20;73.60
73572;DHT22;61854;48.510;-2.770;2022-11-11T16:02:24;13.80;75.20
73572;DHT22;61854;48.510;-2.770;2022-11-11T16:04:59;13.50;77.40
73572;DHT22;61854;48.510;-2.770;2022-11-11T16:07:30;13.20;78.50
73572;DHT22;61854;48.510;-2.770;2022-11-11T16:10:24;13.00;80.10
73572;DHT22;61854;48.510;-2.770;2022-11-11T16:12:58;12.80;80.80
73572;DHT22;61854;48.510;-2.770;2022-11-11T16:15:36;12.60;81.40
73572;DHT22;61854;48.510;-2.770;2022-11-11T16:18:05;12.50;82.30
73572;DHT22;61854;48.510;-2.770;2022-11-11T16:20:41;12.40;83.40
73572;DHT22;61854;48.510;-2.770;2022-11-11T16:23:15;12.30;84.00
73572;DHT22;61854;48.510;-2.770;2022-11-11T16:25:42;12.20;84.00
73572;DHT22;61854;48.510;-2.770;2022-11-11T16:28:10;12.10;84.70
73572;DHT22;61854;48.510;-2.770;2022-11-11T16:30:37;12.00;85.50
73572;DHT22;61854;48.510;-2.770;2022-11-11T16:33:03;11.90;86.30
73572;DHT22;61854;48.510;-2.770;2022-11-11T16:35:37;11.90;87.10
73572;DHT22;61854;48.510;-2.770;2022-11-11T16:38:04;11.90;87.30
73572;DHT22;61854;48.510;-2.770;2022-11-11T16:43:17;11.70;87.70
73572;DHT22;61854;48.510;-2.770;2022-11-11T16:46:04;11.60;88.20
73572;DHT22;61854;48.510;-2.770;2022-11-11T16:51:03;11.40;89.20
73572;DHT22;61854;48.510;-2.770;2022-11-11T16:53:36;11.40;89.70
73572;DHT22;61854;48.510;-2.770;2022-11-11T16:56:04;11.40;89.80
73572;DHT22;61854;48.510;-2.770;2022-11-11T16:58:32;11.30;89.90
73572;DHT22;61854;48.510;-2.770;2022-11-11T17:01:04;11.20;90.20
73572;DHT22;61854;48.510;-2.770;2022-11-11T17:03:30;11.20;90.20
73572;DHT22;61854;48.510;-2.770;2022-11-11T17:06:01;11.10;90.50
73572;DHT22;61854;48.510;-2.770;2022-11-11T17:08:40;11.10;90.70
73572;DHT22;61854;48.510;-2.770;2022-11-11T17:11:38;11.10;90.70
73572;DHT22;61854;48.510;-2.770;2022-11-11T17:13:53;11.10;91.00
73572;DHT22;61854;48.510;-2.770;2022-11-11T17:16:18;11.10;90.90
73572;DHT22;61854;48.510;-2.770;2022-11-11T17:18:44;11.10;90.90
73572;DHT22;61854;48.510;-2.770;2022-11-11T17:21:11;11.20;91.00
73572;DHT22;61854;48.510;-2.770;2022-11-11T17:23:37;11.30;90.90
73572;DHT22;61854;48.510;-2.770;2022-11-11T17:26:02;11.30;90.80
73572;DHT22;61854;48.510;-2.770;2022-11-11T17:28:35;11.40;90.50
73572;DHT22;61854;48.510;-2.770;2022-11-11T17:31:05;11.40;90.50
73572;DHT22;61854;48.510;-2.770;2022-11-11T17:33:30;11.40;90.50
73572;DHT22;61854;48.510;-2.770;2022-11-11T17:35:56;11.50;90.50
73572;DHT22;61854;48.510;-2.770;2022-11-11T17:38:22;11.50;90.50
73572;DHT22;61854;48.510;-2.770;2022-11-11T17:40:49;11.50;90.40
73572;DHT22;61854;48.510;-2.770;2022-11-11T17:43:15;11.50;90.50
73572;DHT22;61854;48.510;-2.770;2022-11-11T17:45:41;11.50;90.50
73572;DHT22;61854;48.510;-2.770;2022-11-11T17:48:08;11.50;90.60
73572;DHT22;61854;48.510;-2.770;2022-11-11T17:50:35;11.60;90.60
73572;DHT22;61854;48.510;-2.770;2022-11-11T17:53:01;11.60;90.60
73572;DHT22;61854;48.510;-2.770;2022-11-11T17:55:27;11.60;90.50
73572;DHT22;61854;48.510;-2.770;2022-11-11T17:57:53;11.60;90.60
73572;DHT22;61854;48.510;-2.770;2022-11-11T18:00:18;11.60;90.60
73572;DHT22;61854;48.510;-2.770;2022-11-11T18:02:44;11.60;90.50
73572;DHT22;61854;48.510;-2.770;2022-11-11T18:05:10;11.60;90.40
73572;DHT22;61854;48.510;-2.770;2022-11-11T18:07:36;11.50;90.30
73572;DHT22;61854;48.510;-2.770;2022-11-11T18:10:01;11.50;90.30
73572;DHT22;61854;48.510;-2.770;2022-11-11T18:12:28;11.50;90.30
73572;DHT22;61854;48.510;-2.770;2022-11-11T18:14:53;11.50;90.60
73572;DHT22;61854;48.510;-2.770;2022-11-11T18:17:19;11.50;90.60
73572;DHT22;61854;48.510;-2.770;2022-11-11T18:19:45;11.50;90.80
73572;DHT22;61854;48.510;-2.770;2022-11-11T18:22:10;11.50;90.80
73572;DHT22;61854;48.510;-2.770;2022-11-11T18:24:36;11.50;91.00
73572;DHT22;61854;48.510;-2.770;2022-11-11T18:27:02;11.50;91.00
73572;DHT22;61854;48.510;-2.770;2022-11-11T18:29:28;11.50;91.00
73572;DHT22;61854;48.510;-2.770;2022-11-11T18:31:55;11.50;91.10
73572;DHT22;61854;48.510;-2.770;2022-11-11T18:34:21;11.50;91.00
73572;DHT22;61854;48.510;-2.770;2022-11-11T18:36:46;11.50;91.10
73572;DHT22;61854;48.510;-2.770;2022-11-11T18:39:12;11.60;91.20
73572;DHT22;61854;48.510;-2.770;2022-11-11T18:41:38;11.50;91.10